Time;durP1;ratioP1;P1;durP2;ratioP2;P2;SDS_P1;SDS_P2;PMS_P1;PMS_P2;Temp;Humidity;BMP_temperature;BMP_pressure;BME280_temperature;BME280_humidity;BME280_pressure;Samples;Min_cycle;Max_cycle;Signal;HPM_P1;HPM_P2
2021/09/05 00:00:53;;;;;;;38.80;18.63;;;;;;;;;;5112648;28;20044;-63
2021/09/05 00:03:38;;;;;;;40.83;18.90;;;;;;;;;;5112296;28;20115;-64
2021/09/05 00:06:23;;;;;;;40.13;17.60;;;;;;;;;;5112741;28;20047;-63
2021/09/05 00:09:09;;;;;;;34.10;18.00;;;;;;;;;;5112570;28;20126;-63
2021/09/05 00:11:54;;;;;;;36.15;17.80;;;;;;;;;;5112434;28;20499;-63
2021/09/05 00:14:39;;;;;;;37.45;19.17;;;;;;;;;;5112350;28;20048;-64
2021/09/05 00:17:25;;;;;;;33.30;17.90;;;;;;;;;;5112284;28;20505;-63
2021/09/05 00:20:10;;;;;;;33.20;18.25;;;;;;;;;;5112471;28;20574;-64
2021/09/05 00:22:55;;;;;;;38.47;18.40;;;;;;;;;;5112581;28;20052;-63
2021/09/05 00:25:41;;;;;;;40.63;19.10;;;;;;;;;;5112155;28;20516;-63
2021/09/05 00:28:26;;;;;;;36.33;18.38;;;;;;;;;;5112413;28;20134;-64
2021/09/05 00:31:11;;;;;;;36.60;17.77;;;;;;;;;;5112458;28;20055;-63
2021/09/05 00:34:00;;;;;;;37.58;19.48;;;;;;;;;;5096676;28;20127;-63
2021/09/05 00:36:46;;;;;;;35.00;18.05;;;;;;;;;;5112213;28;20118;-64
2021/09/05 00:39:32;;;;;;;35.42;18.10;;;;;;;;;;5112176;28;20634;-63
2021/09/05 00:42:27;;;;;;;40.85;18.92;;;;;;;;;;5114775;28;20052;-63
2021/09/05 00:45:12;;;;;;;39.90;20.17;;;;;;;;;;5116042;28;20451;-64
2021/09/05 00:47:59;;;;;;;47.90;20.58;;;;;;;;;;5100724;28;20505;-64
2021/09/05 00:50:44;;;;;;;42.28;18.95;;;;;;;;;;5100922;28;20083;-64
2021/09/05 00:53:35;;;;;;;47.30;21.02;;;;;;;;;;5115798;28;20047;-63
2021/09/05 00:56:20;;;;;;;43.90;19.98;;;;;;;;;;5100608;28;20044;-64
2021/09/05 00:59:07;;;;;;;47.28;21.20;;;;;;;;;;5116034;28;20119;-64
2021/09/05 01:01:53;;;;;;;49.10;21.98;;;;;;;;;;5100575;28;20141;-63
2021/09/05 01:04:38;;;;;;;44.00;21.08;;;;;;;;;;5115883;28;20122;-63
2021/09/05 01:07:26;;;;;;;47.50;21.13;;;;;;;;;;5100512;28;20515;-63
2021/09/05 01:10:14;;;;;;;49.90;20.90;;;;;;;;;;5101021;28;20051;-63
2021/09/05 01:12:59;;;;;;;55.88;23.20;;;;;;;;;;5115708;28;20481;-63
2021/09/05 01:15:45;;;;;;;51.70;21.77;;;;;;;;;;5115464;28;20059;-64
2021/09/05 01:18:37;;;;;;;40.63;19.50;;;;;;;;;;5100225;28;20429;-63
2021/09/05 01:21:41;;;;;;;45.75;21.02;;;;;;;;;;5115681;28;20083;-63
2021/09/05 01:24:45;;;;;;;40.45;18.90;;;;;;;;;;5115382;28;20047;-63
2021/09/05 01:28:08;;;;;;;43.72;19.20;;;;;;;;;;5115543;28;20052;-63
2021/09/05 01:31:28;;;;;;;55.33;22.65;;;;;;;;;;5080482;28;20052;-64
2021/09/05 01:34:39;;;;;;;65.82;25.08;;;;;;;;;;5099623;28;20043;-63
2021/09/05 01:38:01;;;;;;;48.17;23.83;;;;;;;;;;5099961;28;20044;-63
2021/09/05 01:41:15;;;;;;;57.38;23.58;;;;;;;;;;5052619;28;20039;-64
2021/09/05 01:44:23;;;;;;;54.85;22.00;;;;;;;;;;5099553;28;20052;-63
2021/09/05 01:47:26;;;;;;;75.63;25.15;;;;;;;;;;5099574;28;20419;-63
2021/09/05 01:50:14;;;;;;;77.88;26.15;;;;;;;;;;5100172;28;20055;-63
2021/09/05 01:53:31;;;;;;;87.40;25.25;;;;;;;;;;5113862;28;20048;-63
2021/09/05 01:56:36;;;;;;;78.10;24.63;;;;;;;;;;5099429;28;20055;-64
2021/09/05 01:59:41;;;;;;;99.43;30.77;;;;;;;;;;5083424;28;20051;-63
2021/09/05 02:02:45;;;;;;;67.03;24.48;;;;;;;;;;5114762;28;20047;-64
2021/09/05 02:05:50;;;;;;;77.72;26.55;;;;;;;;;;5114614;28;20126;-64
2021/09/05 02:09:04;;;;;;;62.58;23.15;;;;;;;;;;5114546;28;20519;-64
2021/09/05 02:12:10;;;;;;;123.43;27.83;;;;;;;;;;5110480;28;20056;-63
2021/09/05 02:15:04;;;;;;;139.63;27.90;;;;;;;;;;5098716;28;20182;-63
2021/09/05 02:18:19;;;;;;;228.98;28.13;;;;;;;;;;5051927;28;20051;-63
2021/09/05 02:21:19;;;;;;;131.90;28.20;;;;;;;;;;5098877;28;20522;-63
2021/09/05 02:24:16;;;;;;;227.98;32.10;;;;;;;;;;5098636;28;20505;-64
2021/09/05 02:27:27;;;;;;;295.40;37.70;;;;;;;;;;5092918;28;20059;-63
2021/09/05 02:30:34;;;;;;;327.02;40.92;;;;;;;;;;5114334;28;20056;-63
2021/09/05 02:33:32;;;;;;;257.25;38.15;;;;;;;;;;5098407;28;20048;-64
2021/09/05 02:36:36;;;;;;;243.82;36.10;;;;;;;;;;5114206;28;20047;-63
2021/09/05 02:39:41;;;;;;;406.38;49.10;;;;;;;;;;5114156;28;20040;-63
2021/09/05 02:42:29;;;;;;;334.50;40.38;;;;;;;;;;5112945;28;20044;-63
2021/09/05 02:45:37;;;;;;;450.38;42.80;;;;;;;;;;5113515;28;20052;-63
2021/09/05 02:48:54;;;;;;;316.30;40.17;;;;;;;;;;5114177;28;20055;-64
2021/09/05 02:52:14;;;;;;;149.70;30.08;;;;;;;;;;5113858;28;20390;-63
2021/09/05 02:55:29;;;;;;;88.32;29.00;;;;;;;;;;5050840;28;20056;-64
2021/09/05 02:58:31;;;;;;;56.00;25.65;;;;;;;;;;5071691;28;20055;-62
2021/09/05 03:01:48;;;;;;;59.97;26.17;;;;;;;;;;5072868;28;20169;-62
2021/09/05 03:04:54;;;;;;;63.28;26.85;;;;;;;;;;5072487;28;20122;-63
2021/09/05 03:07:58;;;;;;;46.40;23.08;;;;;;;;;;5057779;28;20052;-62
2021/09/05 03:11:02;;;;;;;53.92;25.35;;;;;;;;;;5071720;28;20057;-61
2021/09/05 03:14:19;;;;;;;58.95;27.98;;;;;;;;;;5054597;28;20125;-62
2021/09/05 03:17:37;;;;;;;61.33;27.35;;;;;;;;;;5071836;28;20053;-62
2021/09/05 03:20:41;;;;;;;65.28;28.30;;;;;;;;;;5072779;28;20052;-62
2021/09/05 03:23:45;;;;;;;67.05;29.10;;;;;;;;;;5072338;28;20088;-62
2021/09/05 03:26:51;;;;;;;62.85;27.92;;;;;;;;;;5071343;28;20051;-62
2021/09/05 03:29:56;;;;;;;57.92;25.98;;;;;;;;;;5072346;28;20052;-62
2021/09/05 03:33:05;;;;;;;50.63;24.40;;;;;;;;;;5072034;28;20048;-62
2021/09/05 03:36:22;;;;;;;50.40;22.50;;;;;;;;;;5072236;28;20123;-62
2021/09/05 03:39:30;;;;;;;47.08;22.23;;;;;;;;;;5072343;28;20645;-62
2021/09/05 03:42:51;;;;;;;55.65;24.98;;;;;;;;;;4990759;28;20443;-62
2021/09/05 03:45:53;;;;;;;47.33;21.63;;;;;;;;;;5072316;28;20044;-62
2021/09/05 03:49:13;;;;;;;38.00;19.00;;;;;;;;;;5029985;28;20045;-62
2021/09/05 03:52:02;;;;;;;37.38;18.27;;;;;;;;;;5057153;28;20060;-62
2021/09/05 03:54:47;;;;;;;40.08;19.73;;;;;;;;;;5070899;28;20115;-62
2021/09/05 03:57:33;;;;;;;43.47;22.10;;;;;;;;;;5071057;28;20053;-62
2021/09/05 04:00:18;;;;;;;46.00;22.63;;;;;;;;;;5071301;28;20053;-62
2021/09/05 04:03:05;;;;;;;25.20;16.15;;;;;;;;;;5071107;28;20060;-62
2021/09/05 04:05:51;;;;;;;32.80;18.42;;;;;;;;;;5071160;28;20052;-62
2021/09/05 04:08:45;;;;;;;35.13;20.73;;;;;;;;;;5072125;28;20053;-62
2021/09/05 04:11:30;;;;;;;48.28;23.35;;;;;;;;;;5071913;28;20064;-62
2021/09/05 04:14:15;;;;;;;41.42;21.05;;;;;;;;;;5071847;28;20056;-62
2021/09/05 04:17:00;;;;;;;39.08;20.13;;;;;;;;;;5071560;28;20052;-62
2021/09/05 04:19:46;;;;;;;40.83;20.95;;;;;;;;;;5071925;28;20048;-62
2021/09/05 04:22:32;;;;;;;29.08;18.83;;;;;;;;;;5072121;28;20044;-62
2021/09/05 04:25:17;;;;;;;42.45;22.48;;;;;;;;;;5071714;28;20052;-62
2021/09/05 04:28:03;;;;;;;45.63;23.67;;;;;;;;;;5071859;28;20556;-62
2021/09/05 04:30:48;;;;;;;43.35;23.30;;;;;;;;;;5072068;28;20053;-62
2021/09/05 04:33:33;;;;;;;51.65;26.00;;;;;;;;;;5071851;28;20449;-62
2021/09/05 04:36:18;;;;;;;54.63;26.02;;;;;;;;;;5071746;28;20052;-62
2021/09/05 04:39:05;;;;;;;45.28;23.75;;;;;;;;;;5071876;28;20048;-62
2021/09/05 04:41:51;;;;;;;40.85;21.80;;;;;;;;;;5071836;28;20071;-62
2021/09/05 04:44:36;;;;;;;50.80;21.65;;;;;;;;;;5071360;28;20506;-62
2021/09/05 04:47:21;;;;;;;42.58;22.38;;;;;;;;;;5071773;28;20044;-62
2021/09/05 04:50:07;;;;;;;53.08;25.92;;;;;;;;;;5071374;28;20506;-62
2021/09/05 04:52:53;;;;;;;45.97;24.58;;;;;;;;;;5071648;28;20048;-62
2021/09/05 04:55:38;;;;;;;44.55;24.27;;;;;;;;;;5071190;28;20468;-62
2021/09/05 04:58:23;;;;;;;50.38;25.00;;;;;;;;;;5071376;28;20124;-62
2021/09/05 05:01:08;;;;;;;43.60;24.25;;;;;;;;;;5062424;28;20056;-63
2021/09/05 05:03:54;;;;;;;54.85;26.45;;;;;;;;;;5069632;28;20052;-63
2021/09/05 05:06:40;;;;;;;57.50;27.30;;;;;;;;;;5071365;28;20422;-62
2021/09/05 05:09:25;;;;;;;47.13;24.40;;;;;;;;;;5071442;28;20056;-62
2021/09/05 05:12:11;;;;;;;54.58;26.55;;;;;;;;;;5071339;28;20474;-62
2021/09/05 05:14:56;;;;;;;53.28;27.23;;;;;;;;;;5071190;28;20049;-62
2021/09/05 05:17:42;;;;;;;55.42;27.52;;;;;;;;;;5071343;28;20053;-62
2021/09/05 05:20:29;;;;;;;43.03;24.08;;;;;;;;;;5071205;28;20123;-62
2021/09/05 05:23:14;;;;;;;46.03;24.05;;;;;;;;;;5071361;28;20052;-62
2021/09/05 05:25:59;;;;;;;51.88;25.50;;;;;;;;;;5071329;28;20084;-62
2021/09/05 05:28:45;;;;;;;48.00;25.40;;;;;;;;;;5072634;28;20098;-62
2021/09/05 05:31:30;;;;;;;44.40;25.23;;;;;;;;;;5074958;28;20053;-62
2021/09/05 05:34:16;;;;;;;53.45;26.48;;;;;;;;;;5054665;28;20057;-62
2021/09/05 05:37:03;;;;;;;58.15;30.52;;;;;;;;;;5054530;28;20124;-62
2021/09/05 05:39:48;;;;;;;48.17;26.38;;;;;;;;;;5054707;28;20049;-62
2021/09/05 05:42:33;;;;;;;61.47;30.20;;;;;;;;;;5054694;28;20053;-62
2021/09/05 05:45:18;;;;;;;49.55;29.00;;;;;;;;;;5054184;28;20103;-62
2021/09/05 05:48:04;;;;;;;59.17;30.70;;;;;;;;;;5054581;28;20049;-62
2021/09/05 05:50:49;;;;;;;59.08;31.95;;;;;;;;;;5054519;28;20119;-62
2021/09/05 05:53:35;;;;;;;61.00;31.65;;;;;;;;;;5054139;28;20052;-62
2021/09/05 05:56:20;;;;;;;59.05;31.75;;;;;;;;;;5054243;28;20057;-63
2021/09/05 05:59:06;;;;;;;54.80;31.60;;;;;;;;;;5054350;28;20069;-63
2021/09/05 06:01:51;;;;;;;50.38;29.13;;;;;;;;;;5036333;28;20179;-63
2021/09/05 06:04:36;;;;;;;58.78;31.42;;;;;;;;;;5054094;28;20057;-63
2021/09/05 06:07:21;;;;;;;61.53;32.83;;;;;;;;;;5054170;28;20056;-63
2021/09/05 06:10:07;;;;;;;52.08;31.88;;;;;;;;;;5054088;28;20048;-63
2021/09/05 06:12:52;;;;;;;65.40;34.70;;;;;;;;;;5054158;28;20049;-63
2021/09/05 06:15:37;;;;;;;55.45;30.83;;;;;;;;;;5053753;28;20154;-63
2021/09/05 06:18:22;;;;;;;58.10;30.98;;;;;;;;;;5053880;28;20049;-63
2021/09/05 06:21:08;;;;;;;57.65;32.88;;;;;;;;;;5053790;28;20053;-63
2021/09/05 06:23:53;;;;;;;58.15;33.30;;;;;;;;;;5054174;28;20116;-63
2021/09/05 06:26:39;;;;;;;53.05;31.45;;;;;;;;;;5056133;28;20554;-63
2021/09/05 06:29:24;;;;;;;68.57;36.38;;;;;;;;;;5053588;28;20061;-63
2021/09/05 06:32:09;;;;;;;60.15;33.40;;;;;;;;;;5053727;28;20056;-63
2021/09/05 06:34:55;;;;;;;67.93;35.50;;;;;;;;;;5053214;28;20503;-63
2021/09/05 06:37:40;;;;;;;70.38;34.30;;;;;;;;;;5053315;28;20053;-63
2021/09/05 06:40:25;;;;;;;61.35;33.55;;;;;;;;;;5053101;28;20060;-63
2021/09/05 06:43:11;;;;;;;62.60;33.30;;;;;;;;;;5053425;28;20123;-63
2021/09/05 06:45:56;;;;;;;82.30;38.38;;;;;;;;;;5053290;28;20061;-63
2021/09/05 06:48:42;;;;;;;80.30;33.85;;;;;;;;;;5056278;28;20057;-63
2021/09/05 06:51:28;;;;;;;85.20;36.53;;;;;;;;;;5052173;28;20530;-63
2021/09/05 06:54:13;;;;;;;82.35;35.42;;;;;;;;;;5052896;28;20132;-63
2021/09/05 06:56:58;;;;;;;64.78;32.67;;;;;;;;;;5053157;28;20057;-63
2021/09/05 06:59:43;;;;;;;94.25;36.25;;;;;;;;;;5053065;28;20080;-63
2021/09/05 07:02:29;;;;;;;73.40;32.80;;;;;;;;;;5052918;28;20418;-63
2021/09/05 07:05:14;;;;;;;98.28;38.00;;;;;;;;;;5052773;28;20045;-63
2021/09/05 07:07:59;;;;;;;72.38;37.03;;;;;;;;;;5052893;28;20044;-63
2021/09/05 07:10:44;;;;;;;76.25;35.33;;;;;;;;;;5052879;28;20053;-63
2021/09/05 07:13:30;;;;;;;78.07;34.58;;;;;;;;;;5052753;28;20053;-63
2021/09/05 07:16:15;;;;;;;64.75;34.55;;;;;;;;;;5052788;28;20048;-63
2021/09/05 07:19:00;;;;;;;71.78;35.20;;;;;;;;;;5052765;28;20053;-63
2021/09/05 07:21:46;;;;;;;54.60;31.60;;;;;;;;;;5052863;28;20080;-63
2021/09/05 07:24:31;;;;;;;59.53;32.55;;;;;;;;;;5052472;28;20053;-63
2021/09/05 07:27:16;;;;;;;52.13;31.90;;;;;;;;;;5052529;28;20057;-63
2021/09/05 07:30:02;;;;;;;47.42;26.92;;;;;;;;;;5052736;28;20057;-63
2021/09/05 07:32:47;;;;;;;49.67;30.25;;;;;;;;;;5052569;28;20442;-63
2021/09/05 07:35:32;;;;;;;52.40;29.67;;;;;;;;;;5052077;28;20053;-63
2021/09/05 07:38:18;;;;;;;52.90;29.70;;;;;;;;;;5052453;28;20044;-63
2021/09/05 07:41:03;;;;;;;43.50;28.23;;;;;;;;;;5052400;28;20053;-64
2021/09/05 07:43:48;;;;;;;41.33;27.15;;;;;;;;;;5048558;28;20049;-63
2021/09/05 07:46:34;;;;;;;50.55;30.77;;;;;;;;;;5064782;28;20678;-63
2021/09/05 07:49:19;;;;;;;44.15;27.35;;;;;;;;;;5071751;28;20056;-64
2021/09/05 07:52:05;;;;;;;34.03;24.50;;;;;;;;;;5071368;28;20056;-63
2021/09/05 07:54:50;;;;;;;43.78;27.40;;;;;;;;;;5071599;28;20056;-63
2021/09/05 07:57:36;;;;;;;38.05;26.33;;;;;;;;;;5069217;28;20044;-61
2021/09/05 08:00:21;;;;;;;41.80;25.92;;;;;;;;;;5071484;28;20052;-64
2021/09/05 08:03:06;;;;;;;36.40;25.92;;;;;;;;;;5072446;28;20052;-63
2021/09/05 08:05:52;;;;;;;37.08;24.02;;;;;;;;;;5071075;28;20049;-63
2021/09/05 08:08:37;;;;;;;32.28;23.50;;;;;;;;;;5071353;28;20052;-65
2021/09/05 08:11:23;;;;;;;30.10;23.20;;;;;;;;;;5072046;28;20056;-63
2021/09/05 08:14:08;;;;;;;36.15;24.70;;;;;;;;;;5069255;28;20052;-63
2021/09/05 08:16:53;;;;;;;29.80;23.27;;;;;;;;;;5071746;28;20119;-63
2021/09/05 08:19:38;;;;;;;32.38;23.52;;;;;;;;;;5070901;28;20589;-63
2021/09/05 08:22:24;;;;;;;33.05;24.60;;;;;;;;;;5071542;28;20044;-63
2021/09/05 08:25:09;;;;;;;27.38;19.50;;;;;;;;;;5071686;28;20449;-63
2021/09/05 08:27:54;;;;;;;29.65;20.40;;;;;;;;;;5071660;28;20072;-63
2021/09/05 08:30:40;;;;;;;30.80;22.67;;;;;;;;;;5071929;28;20048;-63
2021/09/05 08:33:25;;;;;;;28.23;19.48;;;;;;;;;;5071682;28;20452;-63
2021/09/05 08:36:10;;;;;;;19.48;16.55;;;;;;;;;;5071460;28;20186;-63
2021/09/05 08:38:56;;;;;;;24.25;20.60;;;;;;;;;;5072057;28;20457;-64
2021/09/05 08:41:41;;;;;;;28.33;21.58;;;;;;;;;;5071612;28;20498;-63
2021/09/05 08:44:27;;;;;;;21.75;16.63;;;;;;;;;;5071447;28;20381;-63
2021/09/05 08:47:12;;;;;;;22.23;17.17;;;;;;;;;;5071491;28;20498;-63
2021/09/05 08:49:57;;;;;;;21.00;17.50;;;;;;;;;;5071589;28;20048;-63
2021/09/05 08:52:42;;;;;;;18.00;15.73;;;;;;;;;;5056600;28;20123;-63
2021/09/05 08:55:27;;;;;;;20.23;15.07;;;;;;;;;;5071377;28;20048;-63
2021/09/05 08:58:13;;;;;;;18.75;14.35;;;;;;;;;;5115082;22;20056;-64
2021/09/05 09:00:58;;;;;;;16.17;14.23;;;;;;;;;;5111992;28;20505;-63
2021/09/05 09:03:43;;;;;;;17.48;15.18;;;;;;;;;;5115219;28;20170;-63
2021/09/05 09:06:29;;;;;;;17.17;14.95;;;;;;;;;;5115976;28;20357;-64
2021/09/05 09:09:14;;;;;;;17.45;13.57;;;;;;;;;;5100604;28;20059;-64
2021/09/05 09:12:00;;;;;;;18.25;13.65;;;;;;;;;;5115761;28;20085;-64
2021/09/05 09:14:46;;;;;;;17.77;14.07;;;;;;;;;;5115677;28;20325;-64
2021/09/05 09:17:38;;;;;;;19.33;13.80;;;;;;;;;;5115653;28;20051;-63
2021/09/05 09:20:33;;;;;;;15.97;12.90;;;;;;;;;;5115856;28;20094;-63
2021/09/05 09:23:19;;;;;;;15.15;13.52;;;;;;;;;;5115652;28;20055;-63
2021/09/05 09:26:05;;;;;;;14.95;13.38;;;;;;;;;;5115485;28;20047;-63
2021/09/05 09:28:51;;;;;;;16.20;12.85;;;;;;;;;;5115408;28;20051;-64
2021/09/05 09:31:38;;;;;;;13.82;12.25;;;;;;;;;;5115521;28;20047;-64
2021/09/05 09:34:24;;;;;;;17.25;12.98;;;;;;;;;;5114975;28;20493;-64
2021/09/05 09:37:28;;;;;;;15.00;12.23;;;;;;;;;;5115384;28;20069;-64
2021/09/05 09:40:13;;;;;;;15.50;11.93;;;;;;;;;;5115316;28;20048;-64
2021/09/05 09:43:00;;;;;;;17.10;12.82;;;;;;;;;;5099827;28;20052;-63
2021/09/05 09:45:46;;;;;;;14.02;12.48;;;;;;;;;;5100116;28;20055;-64
2021/09/05 09:48:31;;;;;;;14.30;12.50;;;;;;;;;;5114461;28;20055;-63
2021/09/05 09:51:16;;;;;;;14.02;11.52;;;;;;;;;;5114946;28;20051;-62
2021/09/05 09:54:02;;;;;;;16.98;12.68;;;;;;;;;;5114828;28;20048;-63
2021/09/05 09:56:47;;;;;;;13.77;12.20;;;;;;;;;;5114690;28;20044;-63
2021/09/05 09:59:32;;;;;;;15.23;12.38;;;;;;;;;;5114836;28;20126;-63
2021/09/05 10:02:19;;;;;;;15.00;11.38;;;;;;;;;;5114936;28;20075;-63
2021/09/05 10:05:04;;;;;;;14.85;11.77;;;;;;;;;;5099430;28;20043;-63
2021/09/05 10:07:50;;;;;;;13.35;11.35;;;;;;;;;;5089430;28;20040;-63
2021/09/05 10:10:35;;;;;;;15.38;10.95;;;;;;;;;;5094038;28;20052;-62
2021/09/05 10:13:45;;;;;;;14.88;11.15;;;;;;;;;;5093653;28;20099;-63
2021/09/05 10:16:33;;;;;;;12.50;10.95;;;;;;;;;;5092544;28;20048;-63
2021/09/05 10:19:19;;;;;;;16.98;11.13;;;;;;;;;;5093950;28;20127;-63
2021/09/05 10:22:04;;;;;;;12.70;11.15;;;;;;;;;;5078321;28;20075;-63
2021/09/05 10:24:51;;;;;;;15.18;10.98;;;;;;;;;;5093511;28;20048;-63
2021/09/05 10:27:37;;;;;;;15.15;11.63;;;;;;;;;;5093909;28;20127;-63
2021/09/05 10:30:22;;;;;;;14.68;10.48;;;;;;;;;;5093511;28;20056;-63
2021/09/05 10:33:07;;;;;;;14.02;10.73;;;;;;;;;;5096572;28;20390;-63
2021/09/05 10:35:52;;;;;;;13.98;11.20;;;;;;;;;;5114288;28;20040;-63
2021/09/05 10:38:38;;;;;;;18.10;12.07;;;;;;;;;;5114022;28;20048;-62
2021/09/05 10:41:23;;;;;;;14.10;11.90;;;;;;;;;;5113900;28;20049;-63
2021/09/05 10:44:09;;;;;;;12.93;9.52;;;;;;;;;;5113700;28;20505;-63
2021/09/05 10:46:55;;;;;;;16.15;12.02;;;;;;;;;;5113817;28;20051;-63
2021/09/05 10:49:41;;;;;;;17.38;12.65;;;;;;;;;;5091382;28;20052;-63
2021/09/05 10:52:45;;;;;;;13.95;11.48;;;;;;;;;;5093646;28;20051;-63
2021/09/05 10:55:30;;;;;;;14.05;11.98;;;;;;;;;;5093119;28;20440;-63
2021/09/05 10:58:18;;;;;;;15.68;11.48;;;;;;;;;;5093123;28;20501;-63
2021/09/05 11:01:04;;;;;;;16.02;12.10;;;;;;;;;;5093368;28;20052;-64
2021/09/05 11:04:07;;;;;;;13.02;11.57;;;;;;;;;;5093132;28;20080;-63
2021/09/05 11:07:06;;;;;;;14.48;11.88;;;;;;;;;;5093065;28;20498;-63
2021/09/05 11:09:52;;;;;;;16.13;11.25;;;;;;;;;;5093156;28;20055;-64
2021/09/05 11:12:40;;;;;;;13.57;11.98;;;;;;;;;;5092550;28;20060;-63
2021/09/05 11:15:26;;;;;;;15.27;12.93;;;;;;;;;;5099910;28;20048;-63
2021/09/05 11:18:11;;;;;;;18.05;12.98;;;;;;;;;;5093031;28;20119;-63
2021/09/05 11:20:57;;;;;;;16.15;10.98;;;;;;;;;;5092905;28;20044;-64
2021/09/05 11:23:43;;;;;;;16.88;12.25;;;;;;;;;;5092855;28;20047;-63
2021/09/05 11:26:28;;;;;;;17.10;10.80;;;;;;;;;;5076773;28;20122;-63
2021/09/05 11:29:24;;;;;;;12.60;11.05;;;;;;;;;;5092767;28;20052;-63
2021/09/05 11:32:10;;;;;;;15.25;11.65;;;;;;;;;;5092955;28;20437;-63
2021/09/05 11:34:57;;;;;;;16.02;11.65;;;;;;;;;;5092542;28;20086;-62
2021/09/05 11:37:44;;;;;;;16.02;11.02;;;;;;;;;;5092484;28;20044;-63
2021/09/05 11:40:30;;;;;;;18.48;13.55;;;;;;;;;;5092802;28;20052;-63
2021/09/05 11:43:28;;;;;;;17.13;13.30;;;;;;;;;;5092639;28;20052;-63
2021/09/05 11:46:18;;;;;;;14.40;11.88;;;;;;;;;;5092665;28;20094;-63
2021/09/05 11:49:05;;;;;;;14.55;11.68;;;;;;;;;;5092585;28;20059;-63
2021/09/05 11:51:58;;;;;;;14.63;10.85;;;;;;;;;;5092454;28;20052;-63
2021/09/05 11:54:47;;;;;;;18.00;11.80;;;;;;;;;;5092352;28;20130;-63
2021/09/05 11:57:34;;;;;;;16.88;13.07;;;;;;;;;;5092056;28;20402;-63
2021/09/05 12:00:29;;;;;;;14.48;12.23;;;;;;;;;;5092182;28;20083;-63
2021/09/05 12:03:15;;;;;;;16.13;12.50;;;;;;;;;;5092414;28;20052;-63
2021/09/05 12:06:02;;;;;;;13.80;11.38;;;;;;;;;;5078942;28;20460;-63
2021/09/05 12:08:48;;;;;;;14.93;11.38;;;;;;;;;;5076975;28;20502;-63
2021/09/05 12:11:47;;;;;;;13.75;10.60;;;;;;;;;;5076816;28;20048;-63
2021/09/05 12:14:33;;;;;;;15.75;9.85;;;;;;;;;;5091596;28;20083;-63
2021/09/05 12:17:19;;;;;;;16.73;10.65;;;;;;;;;;5112156;28;20551;-63
2021/09/05 12:20:06;;;;;;;14.35;10.18;;;;;;;;;;5112292;28;20055;-63
2021/09/05 12:22:52;;;;;;;12.07;10.02;;;;;;;;;;5111911;28;20052;-63
2021/09/05 12:25:38;;;;;;;12.43;10.30;;;;;;;;;;5091043;28;20410;-63
2021/09/05 12:28:27;;;;;;;11.75;10.18;;;;;;;;;;5091863;28;20052;-63
2021/09/05 12:31:13;;;;;;;16.45;11.30;;;;;;;;;;5091591;28;20044;-63
2021/09/05 12:33:58;;;;;;;12.27;9.25;;;;;;;;;;5091083;28;20052;-63
2021/09/05 12:36:55;;;;;;;11.82;8.70;;;;;;;;;;5091699;28;20630;-63
2021/09/05 12:39:41;;;;;;;13.57;9.68;;;;;;;;;;5080879;28;20052;-63
2021/09/05 12:42:27;;;;;;;10.05;7.65;;;;;;;;;;5095171;28;20809;-64
2021/09/05 12:45:12;;;;;;;10.75;7.35;;;;;;;;;;5109528;28;20047;-63
2021/09/05 12:48:17;;;;;;;10.02;6.90;;;;;;;;;;5103166;28;20055;-64
2021/09/05 12:51:04;;;;;;;9.18;7.28;;;;;;;;;;5107462;28;20052;-64
2021/09/05 12:53:54;;;;;;;9.80;7.18;;;;;;;;;;5112999;28;20051;-63
2021/09/05 12:56:41;;;;;;;10.77;7.32;;;;;;;;;;5114302;28;20048;-64
2021/09/05 12:59:27;;;;;;;8.57;7.10;;;;;;;;;;5106431;28;20048;-64
2021/09/05 13:02:12;;;;;;;7.32;6.57;;;;;;;;;;5094582;28;20120;-64
2021/09/05 13:04:57;;;;;;;8.10;6.32;;;;;;;;;;5093278;28;20048;-64
2021/09/05 13:07:43;;;;;;;11.30;7.13;;;;;;;;;;5095176;28;20048;-65
2021/09/05 13:10:29;;;;;;;10.40;7.20;;;;;;;;;;5095563;28;20052;-64
2021/09/05 13:13:15;;;;;;;9.00;7.47;;;;;;;;;;5095323;28;20048;-65
2021/09/05 13:16:01;;;;;;;9.73;7.22;;;;;;;;;;5095426;28;20406;-64
2021/09/05 13:18:47;;;;;;;12.73;8.50;;;;;;;;;;5095234;28;20048;-64
2021/09/05 13:21:32;;;;;;;10.20;7.57;;;;;;;;;;5095562;28;20444;-64
2021/09/05 13:24:17;;;;;;;10.30;7.88;;;;;;;;;;5094863;28;20498;-63
2021/09/05 13:27:03;;;;;;;11.27;7.13;;;;;;;;;;5095067;28;20122;-63
2021/09/05 13:29:50;;;;;;;8.50;6.50;;;;;;;;;;5095108;28;20056;-64
2021/09/05 13:32:38;;;;;;;9.68;6.63;;;;;;;;;;5095243;28;20056;-65
2021/09/05 13:35:24;;;;;;;7.00;5.75;;;;;;;;;;5094830;28;20056;-64
2021/09/05 13:38:11;;;;;;;11.30;7.43;;;;;;;;;;5094865;28;20484;-64
2021/09/05 13:40:58;;;;;;;9.00;7.13;;;;;;;;;;5095040;28;20126;-64
2021/09/05 13:43:44;;;;;;;11.23;7.10;;;;;;;;;;5094435;28;20569;-64
2021/09/05 13:46:29;;;;;;;8.40;5.97;;;;;;;;;;5094711;28;20076;-64
2021/09/05 13:49:14;;;;;;;7.47;6.35;;;;;;;;;;5093578;28;20486;-64
2021/09/05 13:52:00;;;;;;;8.82;7.05;;;;;;;;;;5094772;28;20048;-64
2021/09/05 13:54:46;;;;;;;8.88;7.07;;;;;;;;;;5094356;28;20052;-64
2021/09/05 13:57:32;;;;;;;9.07;6.82;;;;;;;;;;5094357;28;20048;-64
2021/09/05 14:00:19;;;;;;;9.07;7.30;;;;;;;;;;5094562;28;20047;-64
2021/09/05 14:03:05;;;;;;;8.40;6.10;;;;;;;;;;5094375;28;20052;-64
2021/09/05 14:05:50;;;;;;;10.13;6.82;;;;;;;;;;5094485;28;20048;-64
2021/09/05 14:08:36;;;;;;;7.82;7.03;;;;;;;;;;5094336;28;20048;-64
2021/09/05 14:11:22;;;;;;;9.70;7.22;;;;;;;;;;5094238;28;20090;-64
2021/09/05 14:14:07;;;;;;;7.80;6.95;;;;;;;;;;5094159;28;20082;-64
2021/09/05 14:16:55;;;;;;;7.13;6.43;;;;;;;;;;5094133;28;20152;-64
2021/09/05 14:19:41;;;;;;;7.68;6.88;;;;;;;;;;5094170;28;20119;-64
2021/09/05 14:22:26;;;;;;;8.95;7.10;;;;;;;;;;5094289;28;20060;-64
2021/09/05 14:25:13;;;;;;;8.13;7.13;;;;;;;;;;5093844;28;20044;-64
2021/09/05 14:28:02;;;;;;;7.53;6.47;;;;;;;;;;5093907;28;20060;-64
2021/09/05 14:30:53;;;;;;;7.95;6.60;;;;;;;;;;5094119;28;20079;-64
2021/09/05 14:57:45;;;;;;;7.90;7.10;;;;;;;;;;5114589;22;20081;-62
2021/09/05 15:00:31;;;;;;;7.35;6.47;;;;;;;;;;5113641;28;20047;-62
2021/09/05 15:06:33;;;;;;;7.68;5.90;;;;;;;;;;5113575;28;20054;-62
2021/09/05 15:12:25;;;;;;;9.65;7.03;;;;;;;;;;5093333;28;20491;-62
2021/09/05 15:15:10;;;;;;;7.35;6.60;;;;;;;;;;5092760;28;20508;-63
2021/09/05 15:17:55;;;;;;;8.77;7.05;;;;;;;;;;5092936;28;20060;-63
2021/09/05 15:20:45;;;;;;;7.25;6.30;;;;;;;;;;5092927;28;20048;-62
2021/09/05 15:23:33;;;;;;;7.50;6.78;;;;;;;;;;5092518;28;20502;-62
2021/09/05 15:26:22;;;;;;;7.22;6.07;;;;;;;;;;5092792;28;20044;-62
2021/09/05 15:32:23;;;;;;;11.15;7.22;;;;;;;;;;5092881;28;20421;-62
2021/09/05 15:53:34;;;;;;;8.10;7.20;;;;;;;;;;5087914;28;20051;-61
2021/09/05 15:56:21;;;;;;;7.03;6.30;;;;;;;;;;5072289;28;20052;-62
2021/09/05 15:59:14;;;;;;;8.90;6.85;;;;;;;;;;5071921;28;20052;-62
2021/09/05 16:02:12;;;;;;;8.88;7.28;;;;;;;;;;5072077;28;20052;-62
2021/09/05 16:17:09;;;;;;;10.10;6.80;;;;;;;;;;5071975;28;20084;-63
2021/09/05 16:19:55;;;;;;;7.45;6.55;;;;;;;;;;5072024;28;20048;-63
2021/09/05 16:22:40;;;;;;;9.13;8.05;;;;;;;;;;5072343;28;20048;-63
2021/09/05 16:25:28;;;;;;;10.57;7.72;;;;;;;;;;5089374;28;20048;-63
2021/09/05 16:28:13;;;;;;;9.27;7.28;;;;;;;;;;5092084;28;20052;-63
2021/09/05 16:30:58;;;;;;;9.80;8.00;;;;;;;;;;5091885;28;20044;-63
2021/09/05 16:33:49;;;;;;;13.38;7.55;;;;;;;;;;5091998;28;20052;-63
2021/09/05 16:36:53;;;;;;;9.80;7.78;;;;;;;;;;5091953;28;20055;-63
2021/09/05 16:42:45;;;;;;;9.60;7.57;;;;;;;;;;5091823;28;20522;-63
2021/09/05 16:45:31;;;;;;;8.80;7.55;;;;;;;;;;5080464;28;20088;-63
2021/09/05 16:48:17;;;;;;;11.60;7.70;;;;;;;;;;5074995;28;20530;-63
2021/09/05 16:51:03;;;;;;;8.27;7.47;;;;;;;;;;5071616;28;20506;-63
2021/09/05 16:53:50;;;;;;;8.13;7.13;;;;;;;;;;5070703;28;20494;-62
2021/09/05 16:56:35;;;;;;;8.55;7.18;;;;;;;;;;5071512;28;20568;-63
2021/09/05 16:59:20;;;;;;;8.98;7.57;;;;;;;;;;5070013;28;20048;-62
2021/09/05 17:02:06;;;;;;;8.80;7.20;;;;;;;;;;5070486;28;20074;-63
2021/09/05 17:04:52;;;;;;;9.45;7.53;;;;;;;;;;5071143;28;20049;-63
2021/09/05 17:07:38;;;;;;;13.50;8.10;;;;;;;;;;5070739;28;20048;-63
2021/09/05 17:10:26;;;;;;;9.15;8.15;;;;;;;;;;5085560;28;20056;-63
2021/09/05 17:13:11;;;;;;;10.15;7.75;;;;;;;;;;5091243;28;20048;-62
2021/09/05 17:16:01;;;;;;;9.15;8.02;;;;;;;;;;5091118;28;20149;-63
2021/09/05 17:18:47;;;;;;;11.20;7.82;;;;;;;;;;5086737;28;20052;-62
2021/09/05 17:21:32;;;;;;;10.27;8.23;;;;;;;;;;5088840;28;20417;-63
2021/09/05 17:24:17;;;;;;;8.93;7.97;;;;;;;;;;5085477;28;20052;-63
2021/09/05 17:27:04;;;;;;;8.65;7.68;;;;;;;;;;5091657;28;20403;-62
2021/09/05 17:29:49;;;;;;;10.52;8.00;;;;;;;;;;5092287;28;20060;-63
2021/09/05 17:32:35;;;;;;;11.00;7.78;;;;;;;;;;5091944;28;20052;-63
2021/09/05 17:35:22;;;;;;;9.90;8.10;;;;;;;;;;5092128;28;20506;-63
2021/09/05 17:38:08;;;;;;;8.95;7.75;;;;;;;;;;5091201;28;20502;-62